sensor_id;sensor_type;location;lat;lon;timestamp;P1;durP1;ratioP1;P2;durP2;ratioP2
13204;SDS011;6667;52.634;9.226;2023-10-13T00:00:37;27.80;;;16.17;;
13204;SDS011;6667;52.634;9.226;2023-10-13T00:03:05;23.00;;;13.27;;
13204;SDS011;6667;52.634;9.226;2023-10-13T00:05:40;28.57;;;15.83;;
13204;SDS011;6667;52.634;9.226;2023-10-13T00:08:08;29.70;;;16.17;;
13204;SDS011;6667;52.634;9.226;2023-10-13T00:10:36;27.40;;;16.30;;
13204;SDS011;6667;52.634;9.226;2023-10-13T00:13:02;26.03;;;15.67;;
13204;SDS011;6667;52.634;9.226;2023-10-13T00:15:39;27.23;;;15.97;;
13204;SDS011;6667;52.634;9.226;2023-10-13T00:18:11;26.30;;;17.60;;
13204;SDS011;6667;52.634;9.226;2023-10-13T00:20:39;32.93;;;18.60;;
13204;SDS011;6667;52.634;9.226;2023-10-13T00:23:12;33.30;;;17.47;;
13204;SDS011;6667;52.634;9.226;2023-10-13T00:25:40;33.10;;;17.97;;
13204;SDS011;6667;52.634;9.226;2023-10-13T00:28:14;32.30;;;18.40;;
13204;SDS011;6667;52.634;9.226;2023-10-13T00:30:49;36.00;;;19.10;;
13204;SDS011;6667;52.634;9.226;2023-10-13T00:33:17;36.07;;;19.73;;
13204;SDS011;6667;52.634;9.226;2023-10-13T00:35:45;34.23;;;18.67;;
13204;SDS011;6667;52.634;9.226;2023-10-13T00:38:13;40.90;;;21.20;;
13204;SDS011;6667;52.634;9.226;2023-10-13T00:40:41;41.77;;;22.40;;
13204;SDS011;6667;52.634;9.226;2023-10-13T00:43:17;41.83;;;22.67;;
13204;SDS011;6667;52.634;9.226;2023-10-13T00:46:04;40.20;;;21.37;;
13204;SDS011;6667;52.634;9.226;2023-10-13T00:48:34;43.93;;;24.23;;
13204;SDS011;6667;52.634;9.226;2023-10-13T00:51:07;45.07;;;24.13;;
13204;SDS011;6667;52.634;9.226;2023-10-13T00:53:43;49.23;;;25.70;;
13204;SDS011;6667;52.634;9.226;2023-10-13T00:56:09;50.30;;;25.70;;
13204;SDS011;6667;52.634;9.226;2023-10-13T00:58:44;48.93;;;25.57;;
13204;SDS011;6667;52.634;9.226;2023-10-13T01:01:12;52.23;;;26.67;;
13204;SDS011;6667;52.634;9.226;2023-10-13T01:03:47;59.33;;;29.93;;
13204;SDS011;6667;52.634;9.226;2023-10-13T01:06:14;63.40;;;30.90;;
13204;SDS011;6667;52.634;9.226;2023-10-13T01:08:44;62.70;;;30.97;;
13204;SDS011;6667;52.634;9.226;2023-10-13T01:11:15;62.13;;;30.03;;
13204;SDS011;6667;52.634;9.226;2023-10-13T01:13:43;64.20;;;31.10;;
13204;SDS011;6667;52.634;9.226;2023-10-13T01:16:09;64.43;;;30.70;;
13204;SDS011;6667;52.634;9.226;2023-10-13T01:18:37;58.43;;;29.53;;
13204;SDS011;6667;52.634;9.226;2023-10-13T01:21:09;66.30;;;32.53;;
13204;SDS011;6667;52.634;9.226;2023-10-13T01:23:41;68.30;;;32.90;;
13204;SDS011;6667;52.634;9.226;2023-10-13T01:26:09;67.33;;;34.63;;
13204;SDS011;6667;52.634;9.226;2023-10-13T01:28:38;70.27;;;34.73;;
13204;SDS011;6667;52.634;9.226;2023-10-13T01:31:09;68.90;;;33.27;;
13204;SDS011;6667;52.634;9.226;2023-10-13T01:33:38;78.90;;;35.17;;
13204;SDS011;6667;52.634;9.226;2023-10-13T01:36:04;73.27;;;34.97;;
13204;SDS011;6667;52.634;9.226;2023-10-13T01:38:34;79.63;;;34.07;;
13204;SDS011;6667;52.634;9.226;2023-10-13T01:41:05;73.40;;;35.90;;
13204;SDS011;6667;52.634;9.226;2023-10-13T01:43:33;71.17;;;32.53;;
13204;SDS011;6667;52.634;9.226;2023-10-13T01:45:59;70.27;;;35.40;;
13204;SDS011;6667;52.634;9.226;2023-10-13T01:48:28;75.83;;;37.60;;
13204;SDS011;6667;52.634;9.226;2023-10-13T01:50:57;75.83;;;34.67;;
13204;SDS011;6667;52.634;9.226;2023-10-13T01:53:25;71.30;;;34.73;;
13204;SDS011;6667;52.634;9.226;2023-10-13T01:55:54;77.97;;;36.23;;
13204;SDS011;6667;52.634;9.226;2023-10-13T01:58:23;77.60;;;37.90;;
13204;SDS011;6667;52.634;9.226;2023-10-13T02:00:51;86.50;;;38.73;;
13204;SDS011;6667;52.634;9.226;2023-10-13T02:03:18;81.40;;;37.80;;
13204;SDS011;6667;52.634;9.226;2023-10-13T02:05:44;81.00;;;40.07;;
13204;SDS011;6667;52.634;9.226;2023-10-13T02:08:13;87.97;;;40.27;;
13204;SDS011;6667;52.634;9.226;2023-10-13T02:10:47;82.37;;;37.77;;
13204;SDS011;6667;52.634;9.226;2023-10-13T02:13:14;83.57;;;41.30;;
13204;SDS011;6667;52.634;9.226;2023-10-13T02:15:43;79.47;;;39.10;;
13204;SDS011;6667;52.634;9.226;2023-10-13T02:18:12;82.83;;;39.37;;
13204;SDS011;6667;52.634;9.226;2023-10-13T02:20:39;87.30;;;39.97;;
13204;SDS011;6667;52.634;9.226;2023-10-13T02:23:11;80.03;;;37.63;;
13204;SDS011;6667;52.634;9.226;2023-10-13T02:25:37;81.63;;;40.07;;
13204;SDS011;6667;52.634;9.226;2023-10-13T02:28:11;87.50;;;41.20;;
13204;SDS011;6667;52.634;9.226;2023-10-13T02:30:39;88.37;;;37.43;;
13204;SDS011;6667;52.634;9.226;2023-10-13T02:33:12;82.13;;;40.40;;
13204;SDS011;6667;52.634;9.226;2023-10-13T02:35:38;85.90;;;38.27;;
13204;SDS011;6667;52.634;9.226;2023-10-13T02:38:15;86.57;;;39.10;;
13204;SDS011;6667;52.634;9.226;2023-10-13T02:40:42;78.13;;;37.00;;
13204;SDS011;6667;52.634;9.226;2023-10-13T02:43:08;72.07;;;37.40;;
13204;SDS011;6667;52.634;9.226;2023-10-13T02:45:34;83.77;;;39.50;;
13204;SDS011;6667;52.634;9.226;2023-10-13T02:48:02;81.40;;;39.73;;
13204;SDS011;6667;52.634;9.226;2023-10-13T02:50:40;72.20;;;37.80;;
13204;SDS011;6667;52.634;9.226;2023-10-13T02:53:11;76.10;;;40.03;;
13204;SDS011;6667;52.634;9.226;2023-10-13T02:55:52;77.27;;;36.83;;
13204;SDS011;6667;52.634;9.226;2023-10-13T02:58:20;71.47;;;36.30;;
13204;SDS011;6667;52.634;9.226;2023-10-13T03:00:46;76.93;;;38.63;;
13204;SDS011;6667;52.634;9.226;2023-10-13T03:03:13;73.60;;;37.13;;
13204;SDS011;6667;52.634;9.226;2023-10-13T03:05:44;71.47;;;38.87;;
13204;SDS011;6667;52.634;9.226;2023-10-13T03:08:11;84.63;;;40.90;;
13204;SDS011;6667;52.634;9.226;2023-10-13T03:10:42;76.90;;;37.97;;
13204;SDS011;6667;52.634;9.226;2023-10-13T03:13:14;75.63;;;38.30;;
13204;SDS011;6667;52.634;9.226;2023-10-13T03:15:40;69.90;;;36.80;;
13204;SDS011;6667;52.634;9.226;2023-10-13T03:18:06;64.30;;;35.13;;
13204;SDS011;6667;52.634;9.226;2023-10-13T03:20:40;63.00;;;34.07;;
13204;SDS011;6667;52.634;9.226;2023-10-13T03:23:08;71.30;;;35.97;;
13204;SDS011;6667;52.634;9.226;2023-10-13T03:25:35;67.43;;;35.67;;
13204;SDS011;6667;52.634;9.226;2023-10-13T03:28:07;71.77;;;37.70;;
13204;SDS011;6667;52.634;9.226;2023-10-13T03:30:37;68.97;;;35.93;;
13204;SDS011;6667;52.634;9.226;2023-10-13T03:33:04;65.57;;;35.93;;
13204;SDS011;6667;52.634;9.226;2023-10-13T03:35:37;66.93;;;36.47;;
13204;SDS011;6667;52.634;9.226;2023-10-13T03:38:07;59.67;;;35.27;;
13204;SDS011;6667;52.634;9.226;2023-10-13T03:40:43;64.77;;;35.70;;
13204;SDS011;6667;52.634;9.226;2023-10-13T03:43:14;61.37;;;34.90;;
13204;SDS011;6667;52.634;9.226;2023-10-13T03:45:46;59.57;;;33.53;;
13204;SDS011;6667;52.634;9.226;2023-10-13T03:48:18;60.00;;;35.23;;
13204;SDS011;6667;52.634;9.226;2023-10-13T03:50:54;61.57;;;33.80;;
13204;SDS011;6667;52.634;9.226;2023-10-13T03:53:33;53.60;;;32.67;;
13204;SDS011;6667;52.634;9.226;2023-10-13T03:56:00;53.17;;;30.93;;
13204;SDS011;6667;52.634;9.226;2023-10-13T03:58:34;46.57;;;29.27;;
13204;SDS011;6667;52.634;9.226;2023-10-13T04:01:01;49.93;;;31.83;;
13204;SDS011;6667;52.634;9.226;2023-10-13T04:03:28;51.50;;;31.93;;
13204;SDS011;6667;52.634;9.226;2023-10-13T04:06:00;47.00;;;29.33;;
13204;SDS011;6667;52.634;9.226;2023-10-13T04:08:32;50.67;;;30.63;;
13204;SDS011;6667;52.634;9.226;2023-10-13T04:11:29;50.97;;;31.17;;
13204;SDS011;6667;52.634;9.226;2023-10-13T04:14:24;56.37;;;31.33;;
13204;SDS011;6667;52.634;9.226;2023-10-13T04:17:11;49.63;;;28.13;;
13204;SDS011;6667;52.634;9.226;2023-10-13T04:19:39;46.90;;;28.80;;
13204;SDS011;6667;52.634;9.226;2023-10-13T04:22:26;49.00;;;30.47;;
13204;SDS011;6667;52.634;9.226;2023-10-13T04:25:15;55.67;;;29.97;;
13204;SDS011;6667;52.634;9.226;2023-10-13T04:28:00;52.47;;;28.10;;
13204;SDS011;6667;52.634;9.226;2023-10-13T04:30:59;44.47;;;26.97;;
13204;SDS011;6667;52.634;9.226;2023-10-13T04:33:36;42.57;;;25.63;;
13204;SDS011;6667;52.634;9.226;2023-10-13T04:36:16;43.20;;;26.57;;
13204;SDS011;6667;52.634;9.226;2023-10-13T04:38:48;46.23;;;29.20;;
13204;SDS011;6667;52.634;9.226;2023-10-13T04:41:26;42.17;;;27.37;;
13204;SDS011;6667;52.634;9.226;2023-10-13T04:43:57;38.63;;;25.10;;
13204;SDS011;6667;52.634;9.226;2023-10-13T04:46:29;42.03;;;26.80;;
13204;SDS011;6667;52.634;9.226;2023-10-13T04:49:19;43.83;;;26.27;;
13204;SDS011;6667;52.634;9.226;2023-10-13T04:51:54;38.00;;;25.30;;
13204;SDS011;6667;52.634;9.226;2023-10-13T04:54:31;37.37;;;24.40;;
13204;SDS011;6667;52.634;9.226;2023-10-13T04:57:11;37.60;;;24.80;;
13204;SDS011;6667;52.634;9.226;2023-10-13T04:59:49;41.47;;;25.17;;
13204;SDS011;6667;52.634;9.226;2023-10-13T05:02:34;37.60;;;24.40;;
13204;SDS011;6667;52.634;9.226;2023-10-13T05:05:42;32.20;;;21.70;;
13204;SDS011;6667;52.634;9.226;2023-10-13T05:08:31;32.60;;;23.03;;
13204;SDS011;6667;52.634;9.226;2023-10-13T05:11:21;35.83;;;22.53;;
13204;SDS011;6667;52.634;9.226;2023-10-13T05:14:06;30.60;;;21.87;;
13204;SDS011;6667;52.634;9.226;2023-10-13T05:16:52;32.40;;;22.00;;
13204;SDS011;6667;52.634;9.226;2023-10-13T05:19:37;36.13;;;21.77;;
13204;SDS011;6667;52.634;9.226;2023-10-13T05:22:21;37.27;;;21.27;;
13204;SDS011;6667;52.634;9.226;2023-10-13T05:25:05;38.13;;;22.20;;
13204;SDS011;6667;52.634;9.226;2023-10-13T05:27:49;32.90;;;21.40;;
13204;SDS011;6667;52.634;9.226;2023-10-13T05:30:35;37.00;;;21.97;;
13204;SDS011;6667;52.634;9.226;2023-10-13T05:33:19;31.90;;;20.70;;
13204;SDS011;6667;52.634;9.226;2023-10-13T05:36:08;32.03;;;20.93;;
13204;SDS011;6667;52.634;9.226;2023-10-13T05:38:53;40.83;;;21.00;;
13204;SDS011;6667;52.634;9.226;2023-10-13T05:41:37;33.57;;;21.57;;
13204;SDS011;6667;52.634;9.226;2023-10-13T05:44:21;34.50;;;21.53;;
13204;SDS011;6667;52.634;9.226;2023-10-13T05:47:04;30.43;;;18.93;;
13204;SDS011;6667;52.634;9.226;2023-10-13T05:50:08;30.30;;;19.93;;
13204;SDS011;6667;52.634;9.226;2023-10-13T05:52:53;32.07;;;21.80;;
13204;SDS011;6667;52.634;9.226;2023-10-13T05:55:38;38.43;;;20.07;;
13204;SDS011;6667;52.634;9.226;2023-10-13T05:58:22;33.27;;;22.77;;
13204;SDS011;6667;52.634;9.226;2023-10-13T06:01:11;39.50;;;21.97;;
13204;SDS011;6667;52.634;9.226;2023-10-13T06:03:57;34.17;;;21.23;;
13204;SDS011;6667;52.634;9.226;2023-10-13T06:06:41;38.07;;;22.47;;
13204;SDS011;6667;52.634;9.226;2023-10-13T06:09:25;37.83;;;21.33;;
13204;SDS011;6667;52.634;9.226;2023-10-13T06:12:09;32.53;;;21.50;;
13204;SDS011;6667;52.634;9.226;2023-10-13T06:14:53;37.77;;;22.50;;
13204;SDS011;6667;52.634;9.226;2023-10-13T06:17:37;34.87;;;22.23;;
13204;SDS011;6667;52.634;9.226;2023-10-13T06:20:23;32.13;;;20.97;;
13204;SDS011;6667;52.634;9.226;2023-10-13T06:23:07;33.17;;;20.93;;
13204;SDS011;6667;52.634;9.226;2023-10-13T06:25:51;33.10;;;21.70;;
13204;SDS011;6667;52.634;9.226;2023-10-13T06:28:43;35.17;;;21.53;;
13204;SDS011;6667;52.634;9.226;2023-10-13T06:31:11;33.13;;;20.97;;
13204;SDS011;6667;52.634;9.226;2023-10-13T06:33:46;33.57;;;21.27;;
13204;SDS011;6667;52.634;9.226;2023-10-13T06:36:14;33.67;;;18.53;;
13204;SDS011;6667;52.634;9.226;2023-10-13T06:38:42;31.93;;;20.33;;
13204;SDS011;6667;52.634;9.226;2023-10-13T06:41:09;30.63;;;20.40;;
13204;SDS011;6667;52.634;9.226;2023-10-13T06:43:44;28.23;;;19.37;;
13204;SDS011;6667;52.634;9.226;2023-10-13T06:46:24;31.87;;;20.13;;
13204;SDS011;6667;52.634;9.226;2023-10-13T06:48:53;32.43;;;19.17;;
13204;SDS011;6667;52.634;9.226;2023-10-13T06:51:21;28.80;;;17.20;;
13204;SDS011;6667;52.634;9.226;2023-10-13T06:53:51;23.47;;;16.67;;
13204;SDS011;6667;52.634;9.226;2023-10-13T06:56:21;26.37;;;17.10;;
13204;SDS011;6667;52.634;9.226;2023-10-13T06:58:51;30.30;;;18.17;;
13204;SDS011;6667;52.634;9.226;2023-10-13T07:01:24;25.73;;;15.70;;
13204;SDS011;6667;52.634;9.226;2023-10-13T07:03:51;20.93;;;15.10;;
13204;SDS011;6667;52.634;9.226;2023-10-13T07:06:18;23.20;;;15.70;;
13204;SDS011;6667;52.634;9.226;2023-10-13T07:08:47;21.97;;;14.97;;
13204;SDS011;6667;52.634;9.226;2023-10-13T07:11:18;18.37;;;13.23;;
13204;SDS011;6667;52.634;9.226;2023-10-13T07:13:58;23.13;;;14.33;;
13204;SDS011;6667;52.634;9.226;2023-10-13T07:16:25;19.63;;;13.77;;
13204;SDS011;6667;52.634;9.226;2023-10-13T07:19:00;20.30;;;13.43;;
13204;SDS011;6667;52.634;9.226;2023-10-13T07:21:30;18.73;;;12.60;;
13204;SDS011;6667;52.634;9.226;2023-10-13T07:23:58;15.27;;;12.07;;
13204;SDS011;6667;52.634;9.226;2023-10-13T07:26:33;18.90;;;10.73;;
13204;SDS011;6667;52.634;9.226;2023-10-13T07:29:00;14.70;;;10.77;;
13204;SDS011;6667;52.634;9.226;2023-10-13T07:31:27;18.07;;;10.03;;
13204;SDS011;6667;52.634;9.226;2023-10-13T07:33:54;14.33;;;9.93;;
13204;SDS011;6667;52.634;9.226;2023-10-13T07:36:29;14.40;;;10.03;;
13204;SDS011;6667;52.634;9.226;2023-10-13T07:39:05;12.80;;;8.97;;
13204;SDS011;6667;52.634;9.226;2023-10-13T07:41:45;11.77;;;9.30;;
13204;SDS011;6667;52.634;9.226;2023-10-13T07:44:16;11.93;;;8.97;;
13204;SDS011;6667;52.634;9.226;2023-10-13T07:46:45;14.03;;;8.47;;
13204;SDS011;6667;52.634;9.226;2023-10-13T07:49:18;12.83;;;9.23;;
13204;SDS011;6667;52.634;9.226;2023-10-13T07:51:46;12.40;;;8.77;;
13204;SDS011;6667;52.634;9.226;2023-10-13T07:54:15;15.53;;;9.20;;
13204;SDS011;6667;52.634;9.226;2023-10-13T07:56:46;12.70;;;8.03;;
13204;SDS011;6667;52.634;9.226;2023-10-13T07:59:13;12.77;;;8.80;;
13204;SDS011;6667;52.634;9.226;2023-10-13T08:01:41;12.47;;;7.63;;
13204;SDS011;6667;52.634;9.226;2023-10-13T08:04:08;11.17;;;7.57;;
13204;SDS011;6667;52.634;9.226;2023-10-13T08:06:37;9.83;;;7.33;;
13204;SDS011;6667;52.634;9.226;2023-10-13T08:09:05;15.70;;;7.40;;
13204;SDS011;6667;52.634;9.226;2023-10-13T08:11:56;11.20;;;5.87;;
13204;SDS011;6667;52.634;9.226;2023-10-13T08:14:23;8.90;;;6.77;;
13204;SDS011;6667;52.634;9.226;2023-10-13T08:16:54;8.80;;;6.67;;
13204;SDS011;6667;52.634;9.226;2023-10-13T08:19:25;10.70;;;6.03;;
13204;SDS011;6667;52.634;9.226;2023-10-13T08:21:53;11.90;;;6.70;;
13204;SDS011;6667;52.634;9.226;2023-10-13T08:24:24;10.10;;;6.63;;
13204;SDS011;6667;52.634;9.226;2023-10-13T08:26:53;8.33;;;6.13;;
13204;SDS011;6667;52.634;9.226;2023-10-13T08:29:24;9.90;;;6.53;;
13204;SDS011;6667;52.634;9.226;2023-10-13T08:32:24;7.90;;;5.97;;
13204;SDS011;6667;52.634;9.226;2023-10-13T08:35:01;9.13;;;5.70;;
13204;SDS011;6667;52.634;9.226;2023-10-13T08:37:48;8.23;;;5.33;;
13204;SDS011;6667;52.634;9.226;2023-10-13T08:40:26;6.17;;;5.33;;
13204;SDS011;6667;52.634;9.226;2023-10-13T08:43:08;10.23;;;5.87;;
13204;SDS011;6667;52.634;9.226;2023-10-13T08:45:39;8.60;;;5.83;;
13204;SDS011;6667;52.634;9.226;2023-10-13T08:48:20;9.73;;;5.50;;
13204;SDS011;6667;52.634;9.226;2023-10-13T08:50:56;11.03;;;6.13;;
13204;SDS011;6667;52.634;9.226;2023-10-13T08:53:29;8.60;;;5.53;;
13204;SDS011;6667;52.634;9.226;2023-10-13T08:56:09;9.37;;;6.13;;
13204;SDS011;6667;52.634;9.226;2023-10-13T08:58:40;9.83;;;5.70;;
13204;SDS011;6667;52.634;9.226;2023-10-13T09:01:27;11.40;;;6.30;;
13204;SDS011;6667;52.634;9.226;2023-10-13T09:04:02;11.87;;;5.67;;
13204;SDS011;6667;52.634;9.226;2023-10-13T09:06:43;12.00;;;6.57;;
13204;SDS011;6667;52.634;9.226;2023-10-13T09:09:23;12.60;;;6.30;;
13204;SDS011;6667;52.634;9.226;2023-10-13T09:12:00;9.77;;;6.80;;
13204;SDS011;6667;52.634;9.226;2023-10-13T09:14:35;9.73;;;6.57;;
13204;SDS011;6667;52.634;9.226;2023-10-13T09:17:09;11.23;;;6.73;;
13204;SDS011;6667;52.634;9.226;2023-10-13T09:19:47;10.95;;;6.47;;
13204;SDS011;6667;52.634;9.226;2023-10-13T09:22:21;10.23;;;7.00;;
13204;SDS011;6667;52.634;9.226;2023-10-13T09:24:51;11.83;;;6.40;;
13204;SDS011;6667;52.634;9.226;2023-10-13T09:27:17;9.00;;;6.63;;
13204;SDS011;6667;52.634;9.226;2023-10-13T09:29:43;7.88;;;6.75;;
13204;SDS011;6667;52.634;9.226;2023-10-13T09:32:22;10.40;;;6.20;;
13204;SDS011;6667;52.634;9.226;2023-10-13T09:34:48;11.37;;;6.80;;
13204;SDS011;6667;52.634;9.226;2023-10-13T09:37:15;8.70;;;6.40;;
13204;SDS011;6667;52.634;9.226;2023-10-13T09:39:45;9.55;;;6.60;;
13204;SDS011;6667;52.634;9.226;2023-10-13T09:42:16;10.52;;;5.72;;
13204;SDS011;6667;52.634;9.226;2023-10-13T09:44:43;9.93;;;5.57;;
13204;SDS011;6667;52.634;9.226;2023-10-13T09:47:16;9.27;;;5.00;;
13204;SDS011;6667;52.634;9.226;2023-10-13T09:49:51;7.25;;;4.97;;
13204;SDS011;6667;52.634;9.226;2023-10-13T09:52:26;6.80;;;4.63;;
13204;SDS011;6667;52.634;9.226;2023-10-13T09:57:47;10.38;;;4.93;;
13204;SDS011;6667;52.634;9.226;2023-10-13T10:00:23;6.53;;;4.72;;
13204;SDS011;6667;52.634;9.226;2023-10-13T10:03:09;8.40;;;4.83;;
13204;SDS011;6667;52.634;9.226;2023-10-13T10:05:58;7.45;;;4.25;;
13204;SDS011;6667;52.634;9.226;2023-10-13T10:08:31;6.35;;;4.13;;
13204;SDS011;6667;52.634;9.226;2023-10-13T10:11:19;8.15;;;4.28;;
13204;SDS011;6667;52.634;9.226;2023-10-13T10:14:07;5.82;;;4.07;;
13204;SDS011;6667;52.634;9.226;2023-10-13T10:16:39;7.57;;;4.57;;
13204;SDS011;6667;52.634;9.226;2023-10-13T10:19:15;5.88;;;4.13;;
13204;SDS011;6667;52.634;9.226;2023-10-13T10:21:44;7.72;;;4.60;;
13204;SDS011;6667;52.634;9.226;2023-10-13T10:24:14;6.15;;;4.22;;
13204;SDS011;6667;52.634;9.226;2023-10-13T10:26:52;11.63;;;4.55;;
13204;SDS011;6667;52.634;9.226;2023-10-13T10:29:19;9.60;;;5.25;;
13204;SDS011;6667;52.634;9.226;2023-10-13T10:31:46;12.10;;;4.97;;
13204;SDS011;6667;52.634;9.226;2023-10-13T10:34:13;10.48;;;4.40;;
13204;SDS011;6667;52.634;9.226;2023-10-13T10:36:45;9.13;;;4.47;;
13204;SDS011;6667;52.634;9.226;2023-10-13T10:39:13;8.60;;;4.68;;
13204;SDS011;6667;52.634;9.226;2023-10-13T10:41:42;9.23;;;4.65;;
13204;SDS011;6667;52.634;9.226;2023-10-13T10:44:17;7.90;;;4.25;;
13204;SDS011;6667;52.634;9.226;2023-10-13T10:46:47;10.68;;;4.68;;
13204;SDS011;6667;52.634;9.226;2023-10-13T10:49:22;8.13;;;4.05;;
13204;SDS011;6667;52.634;9.226;2023-10-13T10:51:57;8.27;;;3.92;;
13204;SDS011;6667;52.634;9.226;2023-10-13T10:54:28;7.25;;;4.57;;
13204;SDS011;6667;52.634;9.226;2023-10-13T10:56:56;9.82;;;4.28;;
13204;SDS011;6667;52.634;9.226;2023-10-13T10:59:35;11.20;;;5.13;;
13204;SDS011;6667;52.634;9.226;2023-10-13T11:02:03;10.27;;;4.72;;
13204;SDS011;6667;52.634;9.226;2023-10-13T11:04:31;11.98;;;4.43;;
13204;SDS011;6667;52.634;9.226;2023-10-13T11:07:01;7.35;;;4.15;;
13204;SDS011;6667;52.634;9.226;2023-10-13T11:09:28;12.75;;;4.43;;
13204;SDS011;6667;52.634;9.226;2023-10-13T11:12:08;6.72;;;4.38;;
13204;SDS011;6667;52.634;9.226;2023-10-13T11:14:40;8.02;;;4.35;;
13204;SDS011;6667;52.634;9.226;2023-10-13T11:17:07;11.95;;;4.15;;
13204;SDS011;6667;52.634;9.226;2023-10-13T11:19:44;9.07;;;4.55;;
13204;SDS011;6667;52.634;9.226;2023-10-13T11:22:12;11.68;;;4.07;;
13204;SDS011;6667;52.634;9.226;2023-10-13T11:25:08;12.35;;;4.55;;
13204;SDS011;6667;52.634;9.226;2023-10-13T11:27:35;7.32;;;4.40;;
13204;SDS011;6667;52.634;9.226;2023-10-13T11:30:22;8.73;;;3.95;;
13204;SDS011;6667;52.634;9.226;2023-10-13T11:32:58;11.25;;;4.28;;
13204;SDS011;6667;52.634;9.226;2023-10-13T11:35:26;6.82;;;3.95;;
13204;SDS011;6667;52.634;9.226;2023-10-13T11:38:13;13.38;;;6.45;;
13204;SDS011;6667;52.634;9.226;2023-10-13T11:40:51;9.25;;;4.68;;
13204;SDS011;6667;52.634;9.226;2023-10-13T11:43:32;11.38;;;5.15;;
13204;SDS011;6667;52.634;9.226;2023-10-13T11:46:10;10.15;;;4.68;;
13204;SDS011;6667;52.634;9.226;2023-10-13T11:48:40;12.77;;;4.88;;
13204;SDS011;6667;52.634;9.226;2023-10-13T11:51:08;8.75;;;4.80;;
13204;SDS011;6667;52.634;9.226;2023-10-13T11:53:42;44.15;;;7.65;;
13204;SDS011;6667;52.634;9.226;2023-10-13T11:56:11;10.88;;;4.55;;
13204;SDS011;6667;52.634;9.226;2023-10-13T11:58:37;11.48;;;4.65;;
13204;SDS011;6667;52.634;9.226;2023-10-13T12:01:05;14.00;;;4.72;;
13204;SDS011;6667;52.634;9.226;2023-10-13T12:03:45;11.48;;;4.82;;
13204;SDS011;6667;52.634;9.226;2023-10-13T12:06:32;10.40;;;5.32;;
13204;SDS011;6667;52.634;9.226;2023-10-13T12:09:12;10.98;;;4.55;;
13204;SDS011;6667;52.634;9.226;2023-10-13T12:11:58;10.85;;;4.50;;
13204;SDS011;6667;52.634;9.226;2023-10-13T12:14:27;11.68;;;5.50;;
13204;SDS011;6667;52.634;9.226;2023-10-13T12:16:54;10.95;;;4.50;;
13204;SDS011;6667;52.634;9.226;2023-10-13T12:19:28;13.70;;;5.13;;
13204;SDS011;6667;52.634;9.226;2023-10-13T12:21:55;10.38;;;4.47;;
13204;SDS011;6667;52.634;9.226;2023-10-13T12:24:22;9.10;;;4.53;;
13204;SDS011;6667;52.634;9.226;2023-10-13T12:27:06;10.82;;;3.78;;
13204;SDS011;6667;52.634;9.226;2023-10-13T12:29:44;12.15;;;4.63;;
13204;SDS011;6667;52.634;9.226;2023-10-13T12:32:12;10.00;;;4.30;;
13204;SDS011;6667;52.634;9.226;2023-10-13T12:34:39;13.10;;;4.68;;
13204;SDS011;6667;52.634;9.226;2023-10-13T12:37:42;10.15;;;4.55;;
13204;SDS011;6667;52.634;9.226;2023-10-13T12:40:29;8.90;;;4.50;;
13204;SDS011;6667;52.634;9.226;2023-10-13T12:43:29;10.35;;;4.18;;
13204;SDS011;6667;52.634;9.226;2023-10-13T12:46:16;11.43;;;5.20;;
13204;SDS011;6667;52.634;9.226;2023-10-13T12:49:00;11.02;;;5.28;;
13204;SDS011;6667;52.634;9.226;2023-10-13T12:51:41;12.57;;;4.82;;
13204;SDS011;6667;52.634;9.226;2023-10-13T12:54:15;13.68;;;5.03;;
13204;SDS011;6667;52.634;9.226;2023-10-13T12:56:45;9.52;;;4.88;;
13204;SDS011;6667;52.634;9.226;2023-10-13T12:59:13;9.55;;;4.07;;
13204;SDS011;6667;52.634;9.226;2023-10-13T13:01:40;8.95;;;4.35;;
13204;SDS011;6667;52.634;9.226;2023-10-13T13:04:08;20.90;;;4.90;;
13204;SDS011;6667;52.634;9.226;2023-10-13T13:06:43;12.50;;;4.60;;
13204;SDS011;6667;52.634;9.226;2023-10-13T13:09:10;9.23;;;4.18;;
13204;SDS011;6667;52.634;9.226;2023-10-13T13:11:37;11.93;;;4.00;;
13204;SDS011;6667;52.634;9.226;2023-10-13T13:14:04;10.13;;;4.63;;
13204;SDS011;6667;52.634;9.226;2023-10-13T13:16:34;11.68;;;4.75;;
13204;SDS011;6667;52.634;9.226;2023-10-13T13:19:04;8.75;;;4.70;;
13204;SDS011;6667;52.634;9.226;2023-10-13T13:21:36;10.40;;;4.75;;
13204;SDS011;6667;52.634;9.226;2023-10-13T13:24:03;13.52;;;4.45;;
13204;SDS011;6667;52.634;9.226;2023-10-13T13:26:35;11.48;;;4.85;;
13204;SDS011;6667;52.634;9.226;2023-10-13T13:29:05;12.70;;;5.07;;
13204;SDS011;6667;52.634;9.226;2023-10-13T13:31:35;11.38;;;5.13;;
13204;SDS011;6667;52.634;9.226;2023-10-13T13:34:07;13.38;;;4.43;;
13204;SDS011;6667;52.634;9.226;2023-10-13T13:36:35;13.32;;;5.25;;
13204;SDS011;6667;52.634;9.226;2023-10-13T13:39:02;12.07;;;4.40;;
13204;SDS011;6667;52.634;9.226;2023-10-13T13:41:30;9.27;;;3.75;;
13204;SDS011;6667;52.634;9.226;2023-10-13T13:43:58;11.23;;;4.53;;
13204;SDS011;6667;52.634;9.226;2023-10-13T13:46:39;12.50;;;4.88;;
13204;SDS011;6667;52.634;9.226;2023-10-13T13:49:07;12.88;;;5.10;;
13204;SDS011;6667;52.634;9.226;2023-10-13T13:51:43;13.95;;;5.10;;
13204;SDS011;6667;52.634;9.226;2023-10-13T13:54:16;15.48;;;4.93;;
13204;SDS011;6667;52.634;9.226;2023-10-13T13:56:44;12.48;;;4.75;;
13204;SDS011;6667;52.634;9.226;2023-10-13T13:59:10;10.68;;;4.68;;
13204;SDS011;6667;52.634;9.226;2023-10-13T14:01:42;10.75;;;4.78;;
13204;SDS011;6667;52.634;9.226;2023-10-13T14:04:09;19.00;;;5.15;;
13204;SDS011;6667;52.634;9.226;2023-10-13T14:06:36;10.10;;;4.65;;
13204;SDS011;6667;52.634;9.226;2023-10-13T14:09:03;13.40;;;5.53;;
13204;SDS011;6667;52.634;9.226;2023-10-13T14:11:39;22.85;;;5.28;;
13204;SDS011;6667;52.634;9.226;2023-10-13T14:14:24;12.60;;;5.50;;
13204;SDS011;6667;52.634;9.226;2023-10-13T14:16:59;13.75;;;5.60;;
13204;SDS011;6667;52.634;9.226;2023-10-13T14:19:33;13.65;;;4.95;;
13204;SDS011;6667;52.634;9.226;2023-10-13T14:22:00;16.50;;;5.40;;
13204;SDS011;6667;52.634;9.226;2023-10-13T14:24:31;16.42;;;4.90;;
13204;SDS011;6667;52.634;9.226;2023-10-13T14:26:59;10.60;;;5.40;;
13204;SDS011;6667;52.634;9.226;2023-10-13T14:29:34;14.95;;;5.00;;
13204;SDS011;6667;52.634;9.226;2023-10-13T14:32:06;13.48;;;5.30;;
13204;SDS011;6667;52.634;9.226;2023-10-13T14:34:37;14.75;;;5.22;;
13204;SDS011;6667;52.634;9.226;2023-10-13T14:37:04;13.52;;;4.88;;
13204;SDS011;6667;52.634;9.226;2023-10-13T14:39:31;10.45;;;4.85;;
13204;SDS011;6667;52.634;9.226;2023-10-13T14:41:59;12.65;;;5.28;;
13204;SDS011;6667;52.634;9.226;2023-10-13T14:44:27;13.65;;;5.30;;
13204;SDS011;6667;52.634;9.226;2023-10-13T14:46:54;18.60;;;5.97;;
13204;SDS011;6667;52.634;9.226;2023-10-13T14:49:22;14.55;;;5.50;;
13204;SDS011;6667;52.634;9.226;2023-10-13T14:51:49;11.90;;;5.97;;
13204;SDS011;6667;52.634;9.226;2023-10-13T14:54:16;17.95;;;5.88;;
13204;SDS011;6667;52.634;9.226;2023-10-13T14:56:50;14.25;;;5.55;;
13204;SDS011;6667;52.634;9.226;2023-10-13T14:59:20;13.25;;;4.80;;
13204;SDS011;6667;52.634;9.226;2023-10-13T15:01:47;18.60;;;6.28;;
13204;SDS011;6667;52.634;9.226;2023-10-13T15:04:14;9.98;;;5.03;;
13204;SDS011;6667;52.634;9.226;2023-10-13T15:06:42;13.13;;;4.10;;
13204;SDS011;6667;52.634;9.226;2023-10-13T15:09:09;14.63;;;5.63;;
13204;SDS011;6667;52.634;9.226;2023-10-13T15:11:36;11.40;;;5.15;;
13204;SDS011;6667;52.634;9.226;2023-10-13T15:14:03;13.40;;;5.20;;
13204;SDS011;6667;52.634;9.226;2023-10-13T15:16:31;13.20;;;5.80;;
13204;SDS011;6667;52.634;9.226;2023-10-13T15:18:59;16.13;;;5.88;;
13204;SDS011;6667;52.634;9.226;2023-10-13T15:21:29;18.50;;;6.53;;
13204;SDS011;6667;52.634;9.226;2023-10-13T15:24:00;11.65;;;5.75;;